createdAt,value
2019-04-03T00:01:14.836Z,3.37
2019-04-03T00:03:43.130Z,5.83
2019-04-03T00:06:11.808Z,4.65
2019-04-03T00:08:40.272Z,6.37
2019-04-03T00:11:09.391Z,4.20
2019-04-03T00:13:41.493Z,6.65
2019-04-03T00:16:08.597Z,5.17
2019-04-03T00:18:37.066Z,4.17
2019-04-03T00:21:05.633Z,4.40
2019-04-03T00:23:33.929Z,6.65
2019-04-03T00:26:02.542Z,5.10
2019-04-03T00:28:30.838Z,8.70
2019-04-03T00:30:59.489Z,5.83
2019-04-03T00:33:28.257Z,6.78
2019-04-03T00:35:56.629Z,8.28
2019-04-03T00:38:25.209Z,6.65
2019-04-03T00:40:54.264Z,7.20
2019-04-03T00:43:24.760Z,4.12
2019-04-03T00:45:54.532Z,6.83
2019-04-03T00:48:25.720Z,5.75
2019-04-03T00:50:56.271Z,4.55
2019-04-03T00:53:24.354Z,6.97
2019-04-03T00:55:53.034Z,5.45
2019-04-03T00:58:42.817Z,4.35
2019-04-03T01:01:12.004Z,5.58
2019-04-03T01:03:40.812Z,8.55
2019-04-03T01:06:09.495Z,7.45
2019-04-03T01:08:38.227Z,7.10
2019-04-03T01:11:06.871Z,8.63
2019-04-03T01:13:35.607Z,8.70
2019-04-03T01:16:04.609Z,8.55
2019-04-03T01:18:35.297Z,8.68
2019-04-03T01:21:06.242Z,4.87
2019-04-03T01:23:33.974Z,9.13
2019-04-03T01:26:02.568Z,8.18
2019-04-03T01:28:31.348Z,10.58
2019-04-03T01:30:59.980Z,7.28
2019-04-03T01:33:28.704Z,7.92
2019-04-03T01:35:57.354Z,11.05
2019-04-03T01:38:26.190Z,10.00
2019-04-03T01:40:54.757Z,8.10
2019-04-03T01:43:23.624Z,5.87
2019-04-03T01:45:52.093Z,7.03
2019-04-03T01:48:20.546Z,10.08
2019-04-03T01:50:49.036Z,5.87
2019-04-03T01:53:17.398Z,7.60
2019-04-03T01:55:46.150Z,6.87
2019-04-03T01:58:14.780Z,8.13
2019-04-03T02:00:43.543Z,11.45
2019-04-03T02:03:12.157Z,8.08
2019-04-03T02:05:43.047Z,6.72
2019-04-03T02:08:10.704Z,9.58
2019-04-03T02:10:39.223Z,8.63
2019-04-03T02:13:07.625Z,8.38
2019-04-03T02:15:37.243Z,8.95
2019-04-03T02:18:05.838Z,9.88
2019-04-03T02:20:34.517Z,6.72
2019-04-03T02:23:02.936Z,7.95
2019-04-03T02:25:32.130Z,8.33
2019-04-03T02:28:03.251Z,8.75
2019-04-03T02:30:31.709Z,5.60
2019-04-03T02:33:00.067Z,7.92
2019-04-03T02:35:28.782Z,8.80
2019-04-03T02:37:57.466Z,8.45
2019-04-03T02:40:25.850Z,7.22
2019-04-03T02:42:54.434Z,7.90
2019-04-03T02:45:24.254Z,8.15
2019-04-03T02:47:53.427Z,5.95
2019-04-03T02:50:25.705Z,6.67
2019-04-03T02:52:56.877Z,7.05
2019-04-03T02:55:24.900Z,10.77
2019-04-03T02:57:53.497Z,4.90
2019-04-03T03:00:22.198Z,5.03
2019-04-03T03:02:50.850Z,5.00
2019-04-03T03:05:19.655Z,6.35
2019-04-03T03:07:48.229Z,7.10
2019-04-03T03:10:19.217Z,5.20
2019-04-03T03:12:46.562Z,6.07
2019-04-03T03:15:14.864Z,4.15
2019-04-03T03:17:43.407Z,4.12
2019-04-03T03:20:12.287Z,6.85
2019-04-03T03:22:40.649Z,4.17
2019-04-03T03:25:09.594Z,3.87
2019-04-03T03:27:40.903Z,2.35
2019-04-03T03:30:30.637Z,4.65
2019-04-03T03:32:39.055Z,3.92
2019-04-03T03:35:14.342Z,6.85
2019-04-03T03:37:38.740Z,2.40
2019-04-03T03:40:07.282Z,2.80
2019-04-03T03:42:35.864Z,2.33
2019-04-03T03:45:04.896Z,3.90
2019-04-03T03:47:35.123Z,4.28
2019-04-03T03:50:05.067Z,3.92
2019-04-03T03:52:36.128Z,4.53
2019-04-03T03:55:04.695Z,4.10
2019-04-03T03:57:33.516Z,3.90
2019-04-03T04:00:02.320Z,3.75
2019-04-03T04:02:30.827Z,2.62
2019-04-03T04:04:59.457Z,4.92
2019-04-03T04:07:28.024Z,2.35
2019-04-03T04:09:56.417Z,4.35
2019-04-03T04:12:24.795Z,5.15
2019-04-03T04:14:56.139Z,5.53
2019-04-03T04:17:23.710Z,2.87
2019-04-03T04:19:52.085Z,6.05
2019-04-03T04:22:20.706Z,2.42
2019-04-03T04:24:49.444Z,2.87
2019-04-03T04:27:18.054Z,5.42
2019-04-03T04:29:46.439Z,6.22
2019-04-03T04:32:15.427Z,3.77
2019-04-03T04:34:49.610Z,4.90
2019-04-03T04:37:17.429Z,6.17
2019-04-03T04:39:45.797Z,6.75
2019-04-03T04:42:14.424Z,4.22
2019-04-03T04:44:43.030Z,6.03
2019-04-03T04:47:11.507Z,3.35
2019-04-03T04:49:41.293Z,4.40
2019-04-03T04:52:09.940Z,5.92
2019-04-03T04:54:38.605Z,2.30
2019-04-03T04:57:08.914Z,2.65
2019-04-03T04:59:37.626Z,3.00
2019-04-03T05:02:06.290Z,5.30
2019-04-03T05:04:34.992Z,3.27
2019-04-03T05:07:03.883Z,4.15
2019-04-03T05:09:34.429Z,4.80
2019-04-03T05:12:02.673Z,6.75
2019-04-03T05:14:32.233Z,4.78
2019-04-03T05:17:01.159Z,5.72
2019-04-03T05:19:29.558Z,2.10
2019-04-03T05:21:58.248Z,4.33
2019-04-03T05:24:26.924Z,3.65
2019-04-03T05:26:57.293Z,2.20
2019-04-03T05:29:26.373Z,2.72
2019-04-03T05:31:54.673Z,2.62
2019-04-03T05:34:22.989Z,1.40
2019-04-03T05:36:51.618Z,2.47
2019-04-03T05:39:20.392Z,2.83
2019-04-03T05:41:49.080Z,2.60
2019-04-03T05:44:17.637Z,2.15
2019-04-03T05:46:45.949Z,3.30
2019-04-03T05:49:14.655Z,1.65
2019-04-03T05:51:43.580Z,3.72
2019-04-03T05:54:14.183Z,1.50
2019-04-03T05:56:42.991Z,2.30
2019-04-03T05:59:11.828Z,3.33
2019-04-03T06:01:42.649Z,4.83
2019-04-03T06:04:10.646Z,4.70
2019-04-03T06:06:39.370Z,4.30
2019-04-03T06:09:07.871Z,5.35
2019-04-03T06:11:36.550Z,2.83
2019-04-03T06:14:08.585Z,4.85
2019-04-03T06:16:37.103Z,6.95
2019-04-03T06:19:07.276Z,5.28
2019-04-03T06:21:35.956Z,3.35
2019-04-03T06:24:04.406Z,4.72
2019-04-03T06:26:33.058Z,6.05
2019-04-03T06:29:01.906Z,2.58
2019-04-03T06:31:30.464Z,6.28
2019-04-03T06:33:58.789Z,3.52
2019-04-03T06:36:27.432Z,3.05
2019-04-03T06:38:57.079Z,3.67
2019-04-03T06:41:26.030Z,4.37
2019-04-03T06:43:54.655Z,5.42
2019-04-03T06:46:23.121Z,2.75
2019-04-03T06:48:51.540Z,2.08
2019-04-03T06:51:20.500Z,1.60
2019-04-03T06:53:48.808Z,2.00
2019-04-03T06:56:17.198Z,2.22
2019-04-03T06:58:45.513Z,3.02
2019-04-03T07:01:14.180Z,2.65
2019-04-03T07:03:43.061Z,3.95
2019-04-03T07:06:13.112Z,3.12
2019-04-03T07:08:42.076Z,1.82
2019-04-03T07:11:22.411Z,2.95
2019-04-03T07:13:40.648Z,1.43
2019-04-03T07:16:09.276Z,2.42
2019-04-03T07:18:38.061Z,3.50
2019-04-03T07:21:06.726Z,4.28
2019-04-03T07:23:35.380Z,1.72
2019-04-03T07:26:05.202Z,3.25
2019-04-03T07:28:34.101Z,2.60
2019-04-03T07:31:02.691Z,3.75
2019-04-03T07:33:31.360Z,7.20
2019-04-03T07:35:59.662Z,1.72
2019-04-03T07:38:28.661Z,4.85
2019-04-03T07:40:57.187Z,3.37
2019-04-03T07:43:27.156Z,1.95
2019-04-03T07:45:56.440Z,2.70
2019-04-03T07:48:25.126Z,1.87
2019-04-03T07:50:54.013Z,4.35
2019-04-03T07:53:22.405Z,2.80
2019-04-03T07:55:50.773Z,2.12
2019-04-03T07:58:19.040Z,5.12
2019-04-03T08:00:47.317Z,4.30
2019-04-03T08:03:15.611Z,5.75
2019-04-03T08:05:45.098Z,4.15
2019-04-03T08:08:13.436Z,2.87
2019-04-03T08:10:42.135Z,4.37
2019-04-03T08:13:10.797Z,3.72
2019-04-03T08:15:39.109Z,3.00
2019-04-03T08:18:07.715Z,2.75
2019-04-03T08:20:36.046Z,6.53
2019-04-03T08:23:05.705Z,2.60
2019-04-03T08:25:34.580Z,4.37
2019-04-03T08:28:02.978Z,4.67
2019-04-03T08:30:31.581Z,3.08
2019-04-03T08:32:59.883Z,2.92
2019-04-03T08:35:28.643Z,5.08
2019-04-03T08:37:58.215Z,5.05
2019-04-03T08:40:26.684Z,3.72
2019-04-03T08:42:55.056Z,3.83
2019-04-03T08:45:23.810Z,3.90
2019-04-03T08:47:52.382Z,3.33
2019-04-03T08:50:20.640Z,4.42
2019-04-03T08:52:50.171Z,3.52
2019-04-03T08:55:18.448Z,3.30
2019-04-03T08:57:47.017Z,2.37
2019-04-03T09:00:16.259Z,1.80
2019-04-03T09:02:44.651Z,7.78
2019-04-03T09:05:14.497Z,3.85
2019-04-03T09:07:43.165Z,4.37
2019-04-03T09:10:12.176Z,3.72
2019-04-03T09:12:40.541Z,4.95
2019-04-03T09:15:08.983Z,3.50
2019-04-03T09:17:37.636Z,3.52
2019-04-03T09:20:06.541Z,7.33
2019-04-03T09:22:35.371Z,3.50
2019-04-03T09:25:06.424Z,3.87
2019-04-03T09:27:35.098Z,2.67
2019-04-03T09:30:11.104Z,2.62
2019-04-03T09:32:39.476Z,3.00
2019-04-03T09:35:08.202Z,4.15
2019-04-03T09:37:38.135Z,4.53
2019-04-03T09:40:06.708Z,5.05
2019-04-03T09:42:34.980Z,2.30
2019-04-03T09:45:03.508Z,2.70
2019-04-03T09:47:34.285Z,2.87
2019-04-03T09:50:02.306Z,3.15
2019-04-03T09:52:39.454Z,3.67
2019-04-03T09:55:01.326Z,6.08
2019-04-03T09:57:31.343Z,1.62
2019-04-03T10:00:00.378Z,2.52
2019-04-03T10:02:28.976Z,4.62
2019-04-03T10:04:58.653Z,4.30
2019-04-03T10:07:27.680Z,3.67
2019-04-03T10:09:57.608Z,3.60
2019-04-03T10:12:26.184Z,4.78
2019-04-03T10:14:54.481Z,12.73
2019-04-03T10:17:23.151Z,8.25
2019-04-03T10:19:52.310Z,3.05
2019-04-03T10:22:21.908Z,4.62
2019-04-03T10:24:51.252Z,4.35
2019-04-03T10:27:19.529Z,5.05
2019-04-03T10:29:50.272Z,7.62
2019-04-03T10:32:18.127Z,6.73
2019-04-03T10:34:46.937Z,5.12
2019-04-03T10:37:16.019Z,7.83
2019-04-03T10:39:44.970Z,5.75
2019-04-03T10:42:13.701Z,5.05
2019-04-03T10:44:42.284Z,3.52
2019-04-03T10:47:10.652Z,4.45
2019-04-03T10:49:39.138Z,2.67
2019-04-03T10:52:07.491Z,3.17
2019-04-03T10:54:37.560Z,5.05
2019-04-03T10:57:06.392Z,2.02
2019-04-03T10:59:34.897Z,3.75
2019-04-03T11:02:03.290Z,4.85
2019-04-03T11:04:31.968Z,4.05
2019-04-03T11:07:00.658Z,3.35
2019-04-03T11:09:29.331Z,4.17
2019-04-03T11:11:59.859Z,4.17
2019-04-03T11:14:27.597Z,2.23
2019-04-03T11:16:56.226Z,3.65
2019-04-03T11:19:24.499Z,4.58
2019-04-03T11:21:55.748Z,5.55
2019-04-03T11:24:23.612Z,3.20
2019-04-03T11:26:52.659Z,4.90
2019-04-03T11:29:21.713Z,5.10
2019-04-03T11:31:50.340Z,7.28
2019-04-03T11:34:19.127Z,4.30
2019-04-03T11:36:47.770Z,4.40
2019-04-03T11:39:16.710Z,11.08
2019-04-03T11:41:45.673Z,6.28
2019-04-03T11:44:14.272Z,6.85
2019-04-03T11:46:42.922Z,5.22
2019-04-03T11:49:11.582Z,5.95
2019-04-03T11:51:39.854Z,6.15
2019-04-03T11:54:08.783Z,3.90
2019-04-03T11:56:37.997Z,4.35
2019-04-03T11:59:06.728Z,3.72
2019-04-03T12:01:35.237Z,6.75
2019-04-03T12:04:03.801Z,4.67
2019-04-03T12:06:32.423Z,8.93
2019-04-03T12:09:01.324Z,5.65
2019-04-03T12:11:29.766Z,7.08
2019-04-03T12:13:58.249Z,3.80
2019-04-03T12:16:27.123Z,6.62
2019-04-03T12:18:56.637Z,5.17
2019-04-03T12:21:25.892Z,2.47
2019-04-03T12:23:54.425Z,7.17
2019-04-03T12:26:24.412Z,4.87
2019-04-03T12:28:53.026Z,5.77
2019-04-03T12:31:21.445Z,3.60
2019-04-03T12:33:56.327Z,4.22
2019-04-03T12:36:20.362Z,2.67
2019-04-03T12:38:48.996Z,4.30
2019-04-03T12:41:17.264Z,6.20
2019-04-03T12:43:45.544Z,5.65
2019-04-03T12:46:14.197Z,9.80
2019-04-03T12:48:42.581Z,5.53
2019-04-03T12:51:11.061Z,6.28
2019-04-03T12:53:39.463Z,4.53
2019-04-03T12:56:07.819Z,5.67
2019-04-03T12:58:38.005Z,4.05
2019-04-03T13:01:07.103Z,7.78
2019-04-03T13:03:37.232Z,7.37
2019-04-03T13:06:07.350Z,3.60
2019-04-03T13:08:36.300Z,1.90
2019-04-03T13:11:05.293Z,2.33
2019-04-03T13:13:33.987Z,5.83
2019-04-03T13:16:03.069Z,5.78
2019-04-03T13:18:32.105Z,9.40
2019-04-03T13:21:01.182Z,2.65
2019-04-03T13:23:29.951Z,2.02
2019-04-03T13:25:58.618Z,3.87
2019-04-03T13:28:27.140Z,3.47
2019-04-03T13:30:55.541Z,4.00
2019-04-03T13:33:23.829Z,2.80
2019-04-03T13:35:52.099Z,2.22
2019-04-03T13:38:20.652Z,5.20
2019-04-03T13:40:49.497Z,2.37
2019-04-03T13:43:20.987Z,4.53
2019-04-03T13:45:48.921Z,5.35
2019-04-03T13:48:17.614Z,4.08
2019-04-03T13:50:46.781Z,6.20
2019-04-03T13:53:15.158Z,4.75
2019-04-03T13:55:43.705Z,5.30
2019-04-03T13:58:12.392Z,3.08
2019-04-03T14:00:41.030Z,5.72
2019-04-03T14:03:09.292Z,4.03
2019-04-03T14:05:37.571Z,3.95
2019-04-03T14:08:07.244Z,5.28
2019-04-03T14:10:36.194Z,3.17
2019-04-03T14:13:04.842Z,5.37
2019-04-03T14:15:33.574Z,3.45
2019-04-03T14:18:02.243Z,4.83
2019-04-03T14:20:31.016Z,5.55
2019-04-03T14:23:02.707Z,6.12
2019-04-03T14:25:36.158Z,3.85
2019-04-03T14:28:02.835Z,3.58
2019-04-03T14:30:30.596Z,3.77
2019-04-03T14:32:59.634Z,3.02
2019-04-03T14:35:50.375Z,3.40
2019-04-03T14:37:59.693Z,2.90
2019-04-03T14:40:29.239Z,3.40
2019-04-03T14:42:58.730Z,3.33
2019-04-03T14:45:27.852Z,3.33
2019-04-03T14:47:56.409Z,5.55
2019-04-03T14:50:24.776Z,2.85
2019-04-03T14:52:53.678Z,3.98
2019-04-03T14:55:23.416Z,5.00
2019-04-03T14:57:55.468Z,5.72
2019-04-03T15:00:27.431Z,4.20
2019-04-03T15:02:55.520Z,8.40
2019-04-03T15:05:23.042Z,6.12
2019-04-03T15:07:51.544Z,2.80
2019-04-03T15:10:19.896Z,9.35
2019-04-03T15:12:49.333Z,8.20
2019-04-03T15:15:18.085Z,4.40
2019-04-03T15:17:46.639Z,2.87
2019-04-03T15:20:18.381Z,3.62
2019-04-03T15:22:46.243Z,4.12
2019-04-03T15:25:16.482Z,5.08
2019-04-03T15:27:46.154Z,2.77
2019-04-03T15:30:14.879Z,3.70
2019-04-03T15:32:43.499Z,2.20
2019-04-03T15:35:11.853Z,2.70
2019-04-03T15:37:42.123Z,2.33
2019-04-03T15:40:10.310Z,3.73
2019-04-03T15:42:40.743Z,4.33
2019-04-03T15:45:09.322Z,8.13
2019-04-03T15:47:41.865Z,5.12
2019-04-03T15:50:08.462Z,3.47
2019-04-03T15:52:37.120Z,2.90
2019-04-03T15:55:07.354Z,4.17
2019-04-03T15:57:38.809Z,1.37
2019-04-03T16:00:13.765Z,1.40
2019-04-03T16:02:45.707Z,1.72
2019-04-03T16:05:13.386Z,5.50
2019-04-03T16:07:42.699Z,5.95
2019-04-03T16:10:11.728Z,1.47
2019-04-03T16:12:42.826Z,2.35
2019-04-03T16:15:10.731Z,5.80
2019-04-03T16:17:39.868Z,6.22
2019-04-03T16:20:08.667Z,5.58
2019-04-03T16:22:37.226Z,5.80
2019-04-03T16:25:07.139Z,5.10
2019-04-03T16:27:36.322Z,5.75
2019-04-03T16:30:09.027Z,6.42
2019-04-03T16:32:38.110Z,5.28
2019-04-03T16:35:08.053Z,3.40
2019-04-03T16:37:36.593Z,3.37
2019-04-03T16:40:06.714Z,2.50
2019-04-03T16:42:36.132Z,3.40
2019-04-03T16:45:09.437Z,3.47
2019-04-03T16:47:38.093Z,1.90
2019-04-03T16:50:08.121Z,1.42
2019-04-03T16:52:37.829Z,2.57
2019-04-03T16:55:07.159Z,2.35
2019-04-03T16:57:36.041Z,1.67
2019-04-03T17:00:08.384Z,1.70
2019-04-03T17:02:37.160Z,2.72
2019-04-03T17:05:06.808Z,1.67
2019-04-03T17:07:37.541Z,1.85
2019-04-03T17:10:06.062Z,1.90
2019-04-03T17:12:34.702Z,1.65
2019-04-03T17:15:03.644Z,2.65
2019-04-03T17:17:32.107Z,2.87
2019-04-03T17:20:00.899Z,2.12
2019-04-03T17:22:29.433Z,1.85
2019-04-03T17:24:57.818Z,2.50
2019-04-03T17:27:29.579Z,2.62
2019-04-03T17:29:56.737Z,2.90
2019-04-03T17:32:28.920Z,2.30
2019-04-03T17:34:56.218Z,2.92
2019-04-03T17:37:26.347Z,3.92
2019-04-03T17:39:54.993Z,2.33
2019-04-03T17:42:25.826Z,4.33
2019-04-03T17:44:53.853Z,3.55
2019-04-03T17:47:22.545Z,3.35
2019-04-03T17:49:51.230Z,5.25
2019-04-03T17:52:19.920Z,5.40
2019-04-03T17:54:48.584Z,5.17
2019-04-03T17:57:17.715Z,6.10
2019-04-03T17:59:48.852Z,7.20
2019-04-03T18:02:16.181Z,4.63
2019-04-03T18:04:44.649Z,5.08
2019-04-03T18:07:13.245Z,7.20
2019-04-03T18:09:42.169Z,5.15
2019-04-03T18:12:11.037Z,4.72
2019-04-03T18:14:39.741Z,4.58
2019-04-03T18:17:08.392Z,5.80
2019-04-03T18:19:38.005Z,4.15
2019-04-03T18:22:07.400Z,6.03
2019-04-03T18:24:36.109Z,5.65
2019-04-03T18:27:06.452Z,5.83
2019-04-03T18:29:37.309Z,7.42
2019-04-03T18:32:05.140Z,4.90
2019-04-03T18:34:33.720Z,4.25
2019-04-03T18:37:04.052Z,4.42
2019-04-03T18:39:32.728Z,4.60
2019-04-03T18:42:01.425Z,4.00
2019-04-03T18:44:30.305Z,3.52
2019-04-03T18:46:58.846Z,5.67
2019-04-03T18:49:27.217Z,5.28
2019-04-03T18:51:55.821Z,4.20
2019-04-03T18:54:24.408Z,7.70
2019-04-03T18:56:52.725Z,5.80
2019-04-03T18:59:21.386Z,5.90
2019-04-03T19:01:49.686Z,4.65
2019-04-03T19:04:18.338Z,5.53
2019-04-03T19:06:46.655Z,4.78
2019-04-03T19:09:16.076Z,5.45
2019-04-03T19:11:44.410Z,4.97
2019-04-03T19:14:12.733Z,7.08
2019-04-03T19:16:45.204Z,7.17
2019-04-03T19:19:11.097Z,4.95
2019-04-03T19:21:39.561Z,8.28
2019-04-03T19:24:07.849Z,7.95
2019-04-03T19:26:36.172Z,5.40
2019-04-03T19:29:05.033Z,5.92
2019-04-03T19:31:34.347Z,7.40
2019-04-03T19:34:02.979Z,6.20
2019-04-03T19:36:31.370Z,8.95
2019-04-03T19:38:59.744Z,8.85
2019-04-03T19:41:28.224Z,5.45
2019-04-03T19:43:56.524Z,5.10
2019-04-03T19:46:24.895Z,6.95
2019-04-03T19:48:54.868Z,6.03
2019-04-03T19:51:23.588Z,5.97
2019-04-03T19:53:59.219Z,4.65
2019-04-03T19:56:25.757Z,4.37
2019-04-03T19:58:52.949Z,4.17
2019-04-03T20:01:23.861Z,6.62
2019-04-03T20:03:52.118Z,8.48
2019-04-03T20:06:22.542Z,9.15
2019-04-03T20:08:50.842Z,13.15
2019-04-03T20:11:19.510Z,11.03
2019-04-03T20:13:48.205Z,10.75
2019-04-03T20:16:16.514Z,8.35
2019-04-03T20:18:44.825Z,11.63
2019-04-03T20:21:15.211Z,10.95
2019-04-03T20:23:43.788Z,8.23
2019-04-03T20:26:12.515Z,10.23
2019-04-03T20:28:41.143Z,10.05
2019-04-03T20:31:09.450Z,11.10
2019-04-03T20:33:38.105Z,8.80
2019-04-03T20:36:06.410Z,9.58
2019-04-03T20:38:35.118Z,9.63
2019-04-03T20:41:03.934Z,9.98
2019-04-03T20:43:32.453Z,7.55
2019-04-03T20:46:01.110Z,6.25
2019-04-03T20:48:29.856Z,7.95
2019-04-03T20:50:58.468Z,8.95
2019-04-03T20:53:27.239Z,6.17
2019-04-03T20:55:57.989Z,7.83
2019-04-03T20:58:27.028Z,7.92
2019-04-03T21:01:06.147Z,7.60
2019-04-03T21:03:25.765Z,6.42
2019-04-03T21:05:54.333Z,7.85
2019-04-03T21:08:22.727Z,7.67
2019-04-03T21:10:51.010Z,9.03
2019-04-03T21:13:19.333Z,10.20
2019-04-03T21:15:47.649Z,5.78
2019-04-03T21:18:15.929Z,8.80
2019-04-03T21:20:44.259Z,6.62
2019-04-03T21:23:12.682Z,9.15
2019-04-03T21:25:41.353Z,10.70
2019-04-03T21:28:10.998Z,8.95
2019-04-03T21:30:39.936Z,11.33
2019-04-03T21:33:08.240Z,10.18
2019-04-03T21:35:36.954Z,11.63
2019-04-03T21:38:05.592Z,13.15
2019-04-03T21:40:34.232Z,12.65
2019-04-03T21:43:02.513Z,14.73
2019-04-03T21:45:30.845Z,14.87
2019-04-03T21:47:59.145Z,14.73
2019-04-03T21:50:27.473Z,15.05
2019-04-03T21:52:56.084Z,17.25
2019-04-03T21:55:24.812Z,15.10
2019-04-03T21:57:53.400Z,14.87
2019-04-03T22:00:52.533Z,15.90
2019-04-03T22:03:21.201Z,13.18
2019-04-03T22:05:49.900Z,12.65
2019-04-03T22:08:18.572Z,13.65
2019-04-03T22:10:46.895Z,10.88
2019-04-03T22:13:15.545Z,12.00
2019-04-03T22:15:45.345Z,14.60
2019-04-03T22:18:13.902Z,12.68
2019-04-03T22:20:42.500Z,10.23
2019-04-03T22:23:11.105Z,13.88
2019-04-03T22:25:39.922Z,16.65
2019-04-03T22:28:08.452Z,16.95
2019-04-03T22:30:36.760Z,16.17
2019-04-03T22:33:05.425Z,16.60
2019-04-03T22:35:34.128Z,17.37
2019-04-03T22:38:05.364Z,14.05
2019-04-03T22:40:33.577Z,19.17
2019-04-03T22:43:02.210Z,17.20
2019-04-03T22:45:30.913Z,13.00
2019-04-03T22:47:59.587Z,12.60
2019-04-03T22:50:27.888Z,12.60
2019-04-03T22:52:56.612Z,11.63
2019-04-03T22:55:26.057Z,14.05
2019-04-03T22:57:54.814Z,11.90
2019-04-03T23:00:25.498Z,12.10
2019-04-03T23:02:53.388Z,13.30
2019-04-03T23:05:21.693Z,13.28
2019-04-03T23:07:51.937Z,14.55
2019-04-03T23:10:20.388Z,14.00
2019-04-03T23:12:48.913Z,12.47
2019-04-03T23:15:17.649Z,18.65
2019-04-03T23:17:46.705Z,18.52
2019-04-03T23:20:15.365Z,12.68
2019-04-03T23:22:43.681Z,12.93
2019-04-03T23:25:12.372Z,10.13
2019-04-03T23:27:40.689Z,12.68
2019-04-03T23:30:10.751Z,11.12
2019-04-03T23:32:39.288Z,13.10
2019-04-03T23:35:07.940Z,12.60
2019-04-03T23:37:36.584Z,12.13
2019-04-03T23:40:06.873Z,13.15
2019-04-03T23:42:35.929Z,12.25
2019-04-03T23:45:06.572Z,10.43
2019-04-03T23:47:35.023Z,11.60
2019-04-03T23:50:05.926Z,12.07
2019-04-03T23:55:04.569Z,13.40
2019-04-03T23:57:32.620Z,11.10
